Pagrindinis puslapis
METAR-TAF:

METAR-TAF

Oro uostai :

Johanesburgas, Pietų Afrikos Respublika

platuma: 26-08S, ilguma: 028-14E, Aukštis: 1694 m

Dabartinis oras

Ataskaita buvo paskelbta 28 minutes, ne 12:00 UTC
Vėjas 7 kt iš Šiaurės/Šiaurės Rytų, svyruoja nuo Šiaurės/Šiaurės Vakarų ir Rytų
Temperatūra 21°C
Drėgmė 17%
Slėgis 1027 hPa
Matomumas 10 km arba daugiau
nėra debesų žemiau 1500 m ir nėra kamuolinių lietaus debesų

METAR: FAOR 041200Z 02007KT 340V090 CAVOK 21/M05 Q1027 NOSIG

Laikas: 14:28 (12:28 UTC)

Prognozė

Ataskaita buvo paskelbta 2 valandos ir 28 minutes, ne 10:00 UTC
Prognozė galioja nuo 04 metu 12 UTC su 05 metu 18 UTC
Vėjas 6 kt iš Šiaurės
Matomumas 10 km arba daugiau
nėra debesų žemiau 1500 m ir nėra kamuolinių lietaus debesų
Tikimybė 30% :
Laikinai
nuo 05 metu 02 UTC su 05 metu 06 UTC
Matomumas: 4500 m
rūkana
Tapsmas
nuo 05 metu 08 UTC su 05 metu 10 UTC
Vėjas 3 kt nuo kintamojo kryptimis

TAF: FAOR 041000Z 0412/0518 35006KT CAVOK TX21/0413Z TN07/0504Z PROB30 TEMPO 0502/0506 4500 BR NSC BECMG 0508/0510 VRB03KT

Orai ataskaitas ir orų prognozės (METAR, TAF).

turimą stotys yra geltonos ir raudonos taškus žemėlapyje.

Perkelti pele per norėdami pamatyti stoties vardą.

Tada spustelėkite, norėdami matyti oro stebėjimo ir prognozės.

Norėdami pakeisti žemėlapį: spustelėkite ant žalios mygtukų su juodo kryžiaus žemyn,; žalią mygtuką su brūkšneliu, jei norite nutolinti; arba žalių rodyklių gretimoms žemėlapius.


METAR-TAF: